createdAt,value
2022-11-11T17:11:59.556Z,11.04
2022-11-11T17:14:44.810Z,10.96
2022-11-11T17:17:31.036Z,10.88
2022-11-11T17:20:20.820Z,10.79
2022-11-11T17:23:09.584Z,10.80
2022-11-11T17:25:57.268Z,10.69
2022-11-11T17:28:42.930Z,10.57
2022-11-11T17:31:28.598Z,10.66
2022-11-11T17:34:14.436Z,10.42
2022-11-11T17:37:00.369Z,10.38
2022-11-11T17:39:46.821Z,10.26
2022-11-11T17:42:33.656Z,10.27
2022-11-11T17:45:20.133Z,10.07
2022-11-11T17:48:06.747Z,9.85
2022-11-11T17:50:52.223Z,9.94
2022-11-11T17:53:38.068Z,10.02
2022-11-11T17:56:27.232Z,9.92
2022-11-11T17:59:13.381Z,9.88
2022-11-11T18:01:59.829Z,9.90
2022-11-11T18:04:46.293Z,9.83
2022-11-11T18:07:32.395Z,9.67
2022-11-11T18:10:17.952Z,9.71
2022-11-11T18:13:04.335Z,9.61
2022-11-11T18:15:50.026Z,9.43
2022-11-11T18:18:38.694Z,9.47
2022-11-11T18:21:24.226Z,9.36
2022-11-11T18:24:11.294Z,9.47
2022-11-11T18:26:57.362Z,9.30
2022-11-11T18:29:43.956Z,9.22
2022-11-11T18:32:29.769Z,9.12
2022-11-11T18:35:15.679Z,9.09
2022-11-11T18:38:02.028Z,9.16
2022-11-11T18:40:48.064Z,9.14
2022-11-11T18:43:48.966Z,9.09
2022-11-11T18:46:35.819Z,8.93
2022-11-11T18:49:21.896Z,8.81
2022-11-11T18:52:08.089Z,8.80
2022-11-11T18:54:54.278Z,8.90
2022-11-11T18:57:40.317Z,8.88
2022-11-11T19:00:26.132Z,9.01
2022-11-11T19:03:16.386Z,8.85
2022-11-11T19:06:04.004Z,8.92
2022-11-11T19:09:10.677Z,8.97
2022-11-11T19:11:56.292Z,8.83
2022-11-11T19:14:41.847Z,8.65
2022-11-11T19:17:27.224Z,8.43
2022-11-11T19:20:12.929Z,8.36
2022-11-11T19:22:59.229Z,8.30
2022-11-11T19:25:45.010Z,8.22
2022-11-11T19:28:33.371Z,8.22
2022-11-11T19:31:21.292Z,8.03
2022-11-11T19:34:06.788Z,8.10
2022-11-11T19:36:52.683Z,8.22
2022-11-11T19:39:39.490Z,8.35
2022-11-11T19:42:25.498Z,8.41
2022-11-11T19:45:11.295Z,8.43
2022-11-11T19:47:57.007Z,8.53
2022-11-11T19:50:43.318Z,8.58
2022-11-11T19:53:29.594Z,8.57
2022-11-11T19:56:18.937Z,8.40
2022-11-11T19:59:04.575Z,8.34
2022-11-11T20:01:52.822Z,8.40
2022-11-11T20:04:39.365Z,8.29
2022-11-11T20:07:25.560Z,8.26
2022-11-11T20:10:11.434Z,7.97
2022-11-11T20:12:57.591Z,8.09
2022-11-11T20:15:43.687Z,8.19
2022-11-11T20:18:31.433Z,8.24
2022-11-11T20:21:17.128Z,8.14
2022-11-11T20:24:03.207Z,8.10
2022-11-11T20:26:52.370Z,8.24
2022-11-11T20:29:39.608Z,8.20
2022-11-11T20:32:25.972Z,8.10
2022-11-11T20:35:12.035Z,8.03
2022-11-11T20:37:59.485Z,8.18
2022-11-11T20:40:45.119Z,8.31
2022-11-11T20:43:32.760Z,8.17
2022-11-11T20:46:21.159Z,8.01
2022-11-11T20:49:07.585Z,8.09
2022-11-11T20:51:53.380Z,8.12
2022-11-11T20:54:39.894Z,8.04
2022-11-11T20:57:25.791Z,7.95
2022-11-11T21:00:14.195Z,7.95
2022-11-11T21:03:00.211Z,8.00
2022-11-11T21:05:45.798Z,7.91
2022-11-11T21:08:33.016Z,7.85
2022-11-11T21:11:21.485Z,7.91
2022-11-11T21:14:08.762Z,7.91
2022-11-11T21:16:54.859Z,8.01
2022-11-11T21:19:40.912Z,7.95
2022-11-11T21:22:26.512Z,7.67
2022-11-11T21:25:12.497Z,7.64
2022-11-11T21:27:57.903Z,7.76
2022-11-11T21:30:43.215Z,7.70
2022-11-11T21:33:28.907Z,7.75
2022-11-11T21:36:15.259Z,7.74
2022-11-11T21:39:05.240Z,7.67
2022-11-11T21:41:51.971Z,7.62
2022-11-11T21:44:37.818Z,7.67
2022-11-11T21:47:23.586Z,7.63
2022-11-11T21:50:09.540Z,7.55
2022-11-11T21:52:55.088Z,7.63
2022-11-11T21:55:40.654Z,7.61
2022-11-11T21:58:26.549Z,7.59
2022-11-11T22:01:19.271Z,7.41
2022-11-11T22:04:08.191Z,7.42
2022-11-11T22:06:53.541Z,7.60
2022-11-11T22:09:38.994Z,7.48
2022-11-11T22:12:24.286Z,7.35
2022-11-11T22:15:09.968Z,7.36
2022-11-11T22:17:56.298Z,7.45
2022-11-11T22:20:41.621Z,7.54
2022-11-11T22:23:27.286Z,7.49
2022-11-11T22:26:13.028Z,7.14
2022-11-11T22:28:58.826Z,7.23
2022-11-11T22:31:44.864Z,7.32
2022-11-11T22:34:30.469Z,7.26
2022-11-11T22:37:15.878Z,7.24
2022-11-11T22:40:01.173Z,7.25
2022-11-11T22:42:46.708Z,7.07
2022-11-11T22:45:32.279Z,7.05
2022-11-11T22:48:17.542Z,7.04
2022-11-11T22:51:09.496Z,7.16
2022-11-11T22:53:57.538Z,6.98
2022-11-11T22:56:43.336Z,6.94
2022-11-11T22:59:28.923Z,6.99
2022-11-11T23:02:14.580Z,6.88
2022-11-11T23:04:59.778Z,6.87
2022-11-11T23:07:45.280Z,6.95
2022-11-11T23:10:31.780Z,6.84
2022-11-11T23:13:17.032Z,6.91
2022-11-11T23:16:03.118Z,6.88
2022-11-11T23:18:48.997Z,6.81
2022-11-11T23:21:35.547Z,6.79
2022-11-11T23:24:20.982Z,6.63
2022-11-11T23:27:06.205Z,6.62
2022-11-11T23:29:52.754Z,6.54
2022-11-11T23:32:38.459Z,6.58
2022-11-11T23:35:23.847Z,6.42
2022-11-11T23:38:09.298Z,6.76
2022-11-11T23:40:54.927Z,6.70
2022-11-11T23:43:40.986Z,6.67
2022-11-11T23:46:26.481Z,6.67
2022-11-11T23:49:11.814Z,6.65
2022-11-11T23:51:57.170Z,6.72
2022-11-11T23:54:42.560Z,6.69
2022-11-11T23:57:28.015Z,6.74
